Time;durP1;ratioP1;P1;durP2;ratioP2;P2;SDS_P1;SDS_P2;PMS_P1;PMS_P2;Temp;Humidity;BMP_temperature;BMP_pressure;BME280_temperature;BME280_humidity;BME280_pressure;Samples;Min_cycle;Max_cycle;Signal;HPM_P1;HPM_P2
2022/01/26 00:08:11;;;;;;;80.50;40.60;;;;;;;-3.81;81.72;99624.39;103903;1283;136983;-53
2022/01/26 00:10:39;;;;;;;76.30;39.70;;;;;;;-3.83;81.81;99614.88;103901;1286;25444;-53
2022/01/26 00:13:07;;;;;;;80.40;39.40;;;;;;;-3.79;81.87;99618.20;108160;1284;24573;-54
2022/01/26 00:15:35;;;;;;;81.30;42.20;;;;;;;-3.80;81.93;99618.13;108399;1284;136499;-54
2022/01/26 00:18:03;;;;;;;84.10;42.50;;;;;;;-3.80;81.98;99619.02;108347;1281;318773;-54
2022/01/26 00:21:28;;;;;;;79.10;39.20;;;;;;;-3.81;82.02;99618.20;108735;1281;137655;-54
2022/01/26 00:40:28;;;;;;;115.20;44.90;;;;;;;-3.75;82.56;99601.73;108863;1280;22575;-54
2022/01/26 00:43:01;;;;;;;120.90;48.10;;;;;;;-3.73;82.60;99596.04;108793;1280;23726;-53
2022/01/26 00:45:35;;;;;;;92.70;42.10;;;;;;;-3.70;82.82;99595.71;108764;1280;138293;-54
2022/01/26 00:48:06;;;;;;;101.00;41.20;;;;;;;-3.67;82.77;99595.75;108840;1279;22637;-54
2022/01/26 00:50:34;;;;;;;102.30;43.10;;;;;;;-3.64;82.91;99592.91;108587;1280;142711;-54
2022/01/26 00:53:02;;;;;;;109.10;43.60;;;;;;;-3.61;82.82;99585.10;108616;1281;22401;-54
2022/01/26 00:55:31;;;;;;;100.50;45.40;;;;;;;-3.57;82.85;99587.00;108489;1281;138748;-54
2022/01/26 00:57:59;;;;;;;101.20;45.20;;;;;;;-3.56;82.93;99583.72;108852;1281;22618;-54
2022/01/26 01:00:27;;;;;;;272.70;81.30;;;;;;;-3.52;82.95;99584.21;108864;1280;22540;-54
2022/01/26 01:02:56;;;;;;;178.80;63.20;;;;;;;-3.53;82.82;99582.55;108678;1280;137793;-54
2022/01/26 01:05:29;;;;;;;160.20;59.40;;;;;;;-3.55;82.82;99580.05;109198;1274;22503;-53
2022/01/26 01:08:04;;;;;;;187.40;68.60;;;;;;;-3.55;82.76;99580.78;109260;1274;138948;-53
2022/01/26 01:10:32;;;;;;;155.30;59.70;;;;;;;-3.58;82.83;99574.92;109346;1274;22467;-54
2022/01/26 01:13:01;;;;;;;179.20;69.00;;;;;;;-3.57;82.81;99580.11;109370;1274;23565;-53
2022/01/26 01:15:29;;;;;;;173.80;67.90;;;;;;;-3.58;82.78;99573.58;109138;1274;138041;-54
2022/01/26 01:18:09;;;;;;;167.80;62.50;;;;;;;-3.57;82.75;99568.20;109204;1276;24087;-53
2022/01/26 01:26:19;;;;;;;163.80;59.10;;;;;;;-3.51;82.88;99560.32;109143;1274;138664;-53
2022/01/26 01:31:48;;;;;;;97.70;43.40;;;;;;;-3.48;83.09;99550.58;109253;1274;139536;-54
2022/01/26 01:34:22;;;;;;;85.20;39.60;;;;;;;-3.44;83.04;99553.11;109300;1274;22255;-54
2022/01/26 01:36:51;;;;;;;97.70;45.90;;;;;;;-3.41;83.10;99549.08;109335;1274;22472;-54
2022/01/26 01:39:20;;;;;;;102.70;45.50;;;;;;;-3.39;83.22;99540.16;108812;1274;137924;-54
2022/01/26 01:41:50;;;;;;;95.90;43.70;;;;;;;-3.37;83.24;99534.58;104780;1275;25377;-53
2022/01/26 01:44:18;;;;;;;99.70;45.10;;;;;;;-3.36;83.18;99531.77;109215;1274;137178;-53
2022/01/26 01:46:46;;;;;;;97.40;43.80;;;;;;;-3.34;83.16;99529.31;109329;1274;23327;-54
2022/01/26 01:49:14;;;;;;;116.10;51.50;;;;;;;-3.35;83.07;99525.09;109326;1274;22482;-54
2022/01/26 01:51:58;;;;;;;130.30;53.30;;;;;;;-3.36;83.11;99522.59;109262;1274;137950;-54
2022/01/26 01:54:26;;;;;;;124.90;52.20;;;;;;;-3.38;83.02;99524.05;109314;1274;22501;-53
2022/01/26 01:56:56;;;;;;;153.30;60.30;;;;;;;-3.39;82.91;99522.09;109188;1274;137779;-54
2022/01/26 01:59:30;;;;;;;106.20;47.40;;;;;;;-3.41;82.92;99520.42;109355;1274;22464;-54
2022/01/26 02:01:58;;;;;;;132.60;54.80;;;;;;;-3.40;82.86;99519.29;109146;1274;139598;-54
2022/01/26 02:04:27;;;;;;;147.20;62.10;;;;;;;-3.40;82.99;99522.08;109156;1276;23149;-54
2022/01/26 02:06:55;;;;;;;125.90;58.30;;;;;;;-3.39;83.03;99519.19;109197;1276;22466;-54
2022/01/26 02:09:23;;;;;;;127.10;55.00;;;;;;;-3.38;83.15;99517.85;109157;1274;139373;-54
2022/01/26 02:11:53;;;;;;;132.70;55.40;;;;;;;-3.37;83.14;99517.93;109320;1274;22448;-54
2022/01/26 02:14:27;;;;;;;128.50;53.70;;;;;;;-3.37;83.02;99519.63;109100;1274;138189;-53
2022/01/26 02:17:14;;;;;;;121.10;51.10;;;;;;;-3.36;83.02;99511.37;109122;1276;22418;-54
2022/01/26 02:56:20;;;;;;;96.70;45.00;;;;;;;-3.33;84.08;99519.72;107930;1284;140101;-56
2022/01/26 02:58:56;;;;;;;86.90;38.50;;;;;;;-3.30;84.06;99521.48;108244;1284;23762;-56
2022/01/26 03:09:30;;;;;;;114.50;49.10;;;;;;;-3.20;84.36;99517.29;109145;1274;138702;-55
2022/01/26 03:11:59;;;;;;;96.00;44.80;;;;;;;-3.18;84.39;99525.23;109134;1276;22448;-56
2022/01/26 03:17:02;;;;;;;114.20;49.30;;;;;;;-3.17;84.32;99521.46;109269;1274;22413;-55
2022/01/26 03:30:48;;;;;;;80.70;37.90;;;;;;;-3.10;84.60;99520.06;109199;1276;22483;-55
2022/01/26 03:35:48;;;;;;;75.00;34.50;;;;;;;-3.04;84.70;99527.95;109282;1274;22429;-55
2022/01/26 03:38:24;;;;;;;80.00;37.40;;;;;;;-3.04;84.65;99534.08;109096;1277;138708;-56
2022/01/26 03:41:28;;;;;;;72.00;35.00;;;;;;;-3.03;84.81;99530.27;109363;1274;23654;-56
2022/01/26 03:43:56;;;;;;;75.10;35.40;;;;;;;-3.01;85.02;99523.86;109209;1274;139335;-55
2022/01/26 03:46:25;;;;;;;81.00;38.90;;;;;;;-2.98;85.16;99525.59;109181;1275;22482;-56
2022/01/26 03:48:53;;;;;;;78.80;37.20;;;;;;;-2.97;85.14;99521.92;109147;1275;27565;-56
2022/01/26 03:51:21;;;;;;;77.50;37.40;;;;;;;-2.91;85.26;99522.31;109093;1276;138325;-55
2022/01/26 03:53:48;;;;;;;87.60;40.10;;;;;;;-2.87;85.44;99524.21;109146;1277;22483;-56
2022/01/26 03:56:16;;;;;;;83.60;41.70;;;;;;;-2.84;85.38;99527.77;109126;1274;139361;-56
2022/01/26 03:58:44;;;;;;;84.70;40.00;;;;;;;-2.82;85.36;99527.94;109298;1274;22482;-56
2022/01/26 04:01:12;;;;;;;82.00;40.60;;;;;;;-2.82;85.42;99531.16;109300;1274;22459;-56
2022/01/26 04:03:41;;;;;;;81.30;38.60;;;;;;;-2.83;85.33;99532.14;109075;1274;137671;-56
2022/01/26 04:06:09;;;;;;;81.70;38.70;;;;;;;-2.85;85.31;99531.81;109107;1276;23264;-56
2022/01/26 04:08:40;;;;;;;77.50;38.40;;;;;;;-2.85;85.40;99536.44;109061;1276;138523;-56
2022/01/26 04:13:36;;;;;;;73.40;34.70;;;;;;;-2.88;85.53;99534.38;109258;1276;23498;-56
2022/01/26 04:16:05;;;;;;;71.40;36.10;;;;;;;-2.90;85.77;99534.81;109243;1274;138542;-56
2022/01/26 04:18:45;;;;;;;65.20;33.50;;;;;;;-2.90;86.16;99532.40;109306;1274;22424;-56
2022/01/26 04:23:55;;;;;;;71.30;32.80;;;;;;;-2.89;86.53;99533.17;109073;1277;22434;-56
2022/01/26 04:26:31;;;;;;;74.10;33.10;;;;;;;-2.89;86.57;99530.80;109046;1274;138837;-56
2022/01/26 04:29:04;;;;;;;66.00;34.00;;;;;;;-2.86;86.77;99529.27;109255;1274;22495;-56
2022/01/26 04:31:32;;;;;;;69.70;32.60;;;;;;;-2.84;86.98;99531.47;109226;1276;23103;-56
2022/01/26 04:34:01;;;;;;;66.50;32.90;;;;;;;-2.82;87.00;99529.83;109050;1274;138367;-56
2022/01/26 04:36:45;;;;;;;65.80;31.90;;;;;;;-2.80;87.17;99530.89;109148;1277;23442;-55
2022/01/26 04:39:17;;;;;;;63.50;30.40;;;;;;;-2.77;87.02;99528.30;108940;1274;138735;-53
2022/01/26 04:41:53;;;;;;;69.00;30.80;;;;;;;-2.76;87.20;99530.42;109306;1274;22415;-54
2022/01/26 04:44:28;;;;;;;71.00;32.30;;;;;;;-2.75;87.26;99530.52;109206;1274;143126;-54
2022/01/26 04:46:56;;;;;;;67.90;32.60;;;;;;;-2.75;87.12;99532.89;109346;1274;22446;-53
2022/01/26 04:49:24;;;;;;;67.00;32.00;;;;;;;-2.75;87.34;99528.96;109296;1274;23185;-54
2022/01/26 04:51:52;;;;;;;60.60;30.80;;;;;;;-2.75;87.15;99530.53;109255;1274;138455;-53
2022/01/26 04:54:20;;;;;;;63.60;33.40;;;;;;;-2.77;87.17;99532.36;109255;1274;22457;-54
2022/01/26 04:56:48;;;;;;;61.70;30.20;;;;;;;-2.79;87.31;99534.16;109196;1274;139075;-53
2022/01/26 04:59:16;;;;;;;64.10;30.90;;;;;;;-2.80;87.20;99537.43;109312;1274;23320;-53
2022/01/26 05:01:44;;;;;;;65.60;31.50;;;;;;;-2.80;87.27;99539.84;109285;1274;22400;-54
2022/01/26 05:04:12;;;;;;;65.10;32.00;;;;;;;-2.84;87.21;99535.45;109216;1274;138757;-54
2022/01/26 05:06:40;;;;;;;63.10;30.50;;;;;;;-2.85;87.21;99543.14;109366;1274;22481;-53
2022/01/26 05:09:08;;;;;;;64.50;31.70;;;;;;;-2.86;87.29;99542.54;109165;1274;140909;-54
2022/01/26 05:11:40;;;;;;;66.50;31.10;;;;;;;-2.86;87.42;99546.34;109311;1274;22402;-53
2022/01/26 05:14:08;;;;;;;64.60;30.40;;;;;;;-2.85;87.43;99551.20;109190;1274;139613;-53
2022/01/26 05:16:36;;;;;;;64.70;30.70;;;;;;;-2.85;87.39;99547.96;109160;1276;22472;-54
2022/01/26 05:19:05;;;;;;;67.70;31.70;;;;;;;-2.85;87.58;99547.27;109211;1275;22575;-53
2022/01/26 05:21:33;;;;;;;68.50;31.90;;;;;;;-2.87;87.51;99553.63;109182;1274;139218;-54
2022/01/26 05:24:01;;;;;;;68.10;31.30;;;;;;;-2.89;87.54;99552.02;109281;1274;22424;-54
2022/01/26 05:26:30;;;;;;;67.20;31.70;;;;;;;-2.92;87.48;99550.77;109224;1274;138073;-53
2022/01/26 05:28:57;;;;;;;72.60;32.90;;;;;;;-2.94;87.44;99566.77;109311;1274;22459;-54
2022/01/26 05:31:25;;;;;;;64.30;31.70;;;;;;;-2.95;87.49;99557.47;109264;1273;23240;-54
2022/01/26 05:33:54;;;;;;;61.80;30.20;;;;;;;-2.96;87.64;99562.04;109255;1274;138705;-54
2022/01/26 05:36:22;;;;;;;65.90;30.50;;;;;;;-2.98;87.60;99562.23;109301;1274;22455;-54
2022/01/26 05:38:50;;;;;;;63.20;28.00;;;;;;;-2.99;87.74;99570.69;109177;1274;138677;-54
2022/01/26 05:41:18;;;;;;;60.60;30.20;;;;;;;-2.99;87.70;99576.23;105121;1274;25377;-54
2022/01/26 05:43:46;;;;;;;62.90;29.60;;;;;;;-3.02;87.59;99574.73;109228;1274;23160;-54
2022/01/26 05:46:26;;;;;;;57.70;28.90;;;;;;;-3.02;87.53;99579.44;109177;1274;138235;-53
2022/01/26 05:48:55;;;;;;;69.50;30.00;;;;;;;-3.01;87.57;99582.86;109342;1274;22454;-53
2022/01/26 05:51:23;;;;;;;59.90;29.20;;;;;;;-3.01;87.69;99583.45;109143;1274;139292;-54
2022/01/26 05:53:51;;;;;;;58.50;29.50;;;;;;;-3.00;87.48;99577.15;109279;1274;22884;-54
2022/01/26 05:56:19;;;;;;;60.30;28.60;;;;;;;-2.99;87.59;99578.82;109191;1274;139243;-54
2022/01/26 05:58:47;;;;;;;61.10;28.30;;;;;;;-2.97;87.58;99584.15;109329;1274;22409;-54
2022/01/26 06:01:15;;;;;;;61.20;29.20;;;;;;;-2.96;87.48;99585.98;109320;1274;22363;-54
2022/01/26 06:03:43;;;;;;;54.50;27.30;;;;;;;-2.98;87.44;99589.76;109144;1274;139127;-54
2022/01/26 06:06:11;;;;;;;61.30;27.20;;;;;;;-3.02;87.34;99591.91;109304;1274;22476;-54
2022/01/26 06:08:39;;;;;;;64.30;29.90;;;;;;;-3.03;87.22;99595.70;109103;1274;139993;-54
2022/01/26 06:11:08;;;;;;;57.50;26.90;;;;;;;-3.04;87.24;99596.70;109262;1274;22435;-54
2022/01/26 06:13:36;;;;;;;57.20;26.00;;;;;;;-3.05;87.03;99595.58;109308;1274;22526;-54
2022/01/26 06:16:04;;;;;;;49.20;26.10;;;;;;;-3.07;86.96;99594.73;109226;1274;139469;-54
2022/01/26 06:18:33;;;;;;;56.10;27.50;;;;;;;-3.10;86.88;99598.77;109273;1274;23135;-53
2022/01/26 06:21:01;;;;;;;61.20;27.50;;;;;;;-3.13;86.70;99602.13;109213;1274;138665;-54
2022/01/26 06:23:29;;;;;;;56.80;27.30;;;;;;;-3.16;86.65;99601.61;109298;1274;22488;-53
2022/01/26 06:25:57;;;;;;;57.60;27.60;;;;;;;-3.21;86.52;99598.39;109188;1274;138869;-54
2022/01/26 06:28:29;;;;;;;53.60;25.50;;;;;;;-3.21;86.50;99605.15;109322;1274;22491;-54
2022/01/26 06:31:03;;;;;;;57.00;25.00;;;;;;;-3.24;86.56;99608.08;109292;1274;22450;-54
2022/01/26 06:33:33;;;;;;;53.40;27.00;;;;;;;-3.24;86.60;99605.81;109123;1274;140128;-54
2022/01/26 06:36:02;;;;;;;60.20;26.90;;;;;;;-3.23;86.59;99605.85;109296;1274;22519;-54
2022/01/26 06:38:31;;;;;;;49.60;24.10;;;;;;;-3.22;86.58;99608.38;109047;1274;139247;-54
2022/01/26 06:41:00;;;;;;;51.90;26.30;;;;;;;-3.20;86.45;99610.55;109259;1274;22571;-54
2022/01/26 06:43:30;;;;;;;52.80;25.10;;;;;;;-3.20;86.52;99614.59;109286;1274;22461;-54
2022/01/26 06:46:08;;;;;;;58.30;26.40;;;;;;;-3.21;86.59;99616.67;109161;1274;139065;-54
2022/01/26 06:48:47;;;;;;;54.30;26.30;;;;;;;-3.18;86.60;99624.58;109325;1274;22430;-54
2022/01/26 06:51:14;;;;;;;64.90;29.90;;;;;;;-3.19;86.48;99632.64;108994;1276;138718;-54
2022/01/26 06:53:43;;;;;;;57.40;28.20;;;;;;;-3.21;86.56;99631.16;109237;1274;22431;-53
2022/01/26 06:56:11;;;;;;;58.30;27.70;;;;;;;-3.21;86.55;99633.03;109203;1274;138938;-54
2022/01/26 06:58:39;;;;;;;63.20;30.20;;;;;;;-3.21;86.62;99636.20;109211;1274;23604;-54
2022/01/26 07:01:07;;;;;;;55.30;26.50;;;;;;;-3.20;86.55;99638.27;109315;1274;22461;-53
2022/01/26 07:03:35;;;;;;;58.90;27.50;;;;;;;-3.18;86.62;99642.33;109166;1274;138660;-54
2022/01/26 07:06:03;;;;;;;53.90;27.40;;;;;;;-3.16;86.55;99650.30;109282;1274;22463;-54
2022/01/26 07:08:32;;;;;;;60.10;28.30;;;;;;;-3.17;86.57;99651.33;109191;1274;139924;-54
2022/01/26 07:11:00;;;;;;;57.40;27.40;;;;;;;-3.13;86.60;99653.92;109342;1274;22450;-54
2022/01/26 07:13:28;;;;;;;57.50;26.40;;;;;;;-3.15;86.60;99647.46;109287;1274;22419;-54
2022/01/26 07:21:29;;;;;;;59.40;27.00;;;;;;;-3.10;86.61;99657.73;109219;1274;140065;-54
2022/01/26 07:23:58;;;;;;;56.00;28.90;;;;;;;-3.09;86.53;99661.50;109238;1274;22444;-54
2022/01/26 07:26:30;;;;;;;49.20;25.20;;;;;;;-3.07;86.54;99663.23;109221;1274;139285;-54
2022/01/26 07:29:00;;;;;;;59.40;26.40;;;;;;;-3.06;86.44;99672.80;109320;1274;22468;-54
2022/01/26 07:31:28;;;;;;;55.00;25.00;;;;;;;-3.11;86.43;99668.73;109317;1274;22407;-53
2022/01/26 07:33:57;;;;;;;49.70;24.10;;;;;;;-3.10;86.26;99677.29;109000;1274;138720;-54
2022/01/26 07:36:25;;;;;;;53.00;25.10;;;;;;;-3.12;86.33;99675.35;109136;1275;22561;-54
2022/01/26 07:38:55;;;;;;;55.30;26.90;;;;;;;-3.13;86.27;99684.31;109101;1274;139750;-54
2022/01/26 07:41:23;;;;;;;50.80;24.00;;;;;;;-3.12;86.31;99680.71;109306;1274;22411;-54
2022/01/26 07:43:51;;;;;;;51.30;23.70;;;;;;;-3.10;86.24;99677.31;109195;1274;140185;-54
2022/01/26 07:46:19;;;;;;;55.70;24.80;;;;;;;-3.10;86.23;99679.05;109282;1274;23246;-53
2022/01/26 07:48:47;;;;;;;48.90;23.50;;;;;;;-3.05;86.17;99684.02;109340;1274;22540;-53
2022/01/26 07:51:15;;;;;;;50.10;23.50;;;;;;;-3.03;86.18;99682.55;109136;1274;137894;-53
2022/01/26 07:53:44;;;;;;;52.30;25.00;;;;;;;-3.00;86.18;99680.40;109167;1275;23605;-54
2022/01/26 07:56:12;;;;;;;60.50;28.90;;;;;;;-2.96;86.10;99685.80;109083;1276;138975;-54
2022/01/26 07:58:41;;;;;;;127.60;55.40;;;;;;;-2.92;85.88;99686.61;109006;1277;22453;-53
2022/01/26 08:01:09;;;;;;;84.70;33.90;;;;;;;-2.89;85.79;99694.27;109145;1276;23192;-54
2022/01/26 08:03:37;;;;;;;189.30;72.20;;;;;;;-2.87;85.60;99692.63;109044;1275;139678;-54
2022/01/26 08:06:06;;;;;;;158.20;60.50;;;;;;;-2.84;85.38;99695.52;109185;1275;22424;-54
2022/01/26 08:08:34;;;;;;;114.90;47.20;;;;;;;-2.80;85.13;99699.95;109100;1274;140369;-54
2022/01/26 08:11:02;;;;;;;91.60;39.20;;;;;;;-2.77;85.08;99702.84;109268;1274;22516;-53
2022/01/26 08:13:30;;;;;;;88.40;39.80;;;;;;;-2.75;84.81;99708.23;109283;1274;22418;-54
2022/01/26 08:15:58;;;;;;;132.50;52.20;;;;;;;-2.73;84.50;99709.30;109186;1274;139458;-54
2022/01/26 08:18:26;;;;;;;55.20;25.50;;;;;;;-2.73;84.24;99708.00;109315;1274;22557;-53
2022/01/26 08:20:54;;;;;;;45.20;23.30;;;;;;;-2.72;84.27;99715.84;109126;1274;139204;-54
2022/01/26 08:23:22;;;;;;;57.80;27.50;;;;;;;-2.70;83.98;99716.61;109309;1274;22426;-54
2022/01/26 08:25:51;;;;;;;106.50;44.90;;;;;;;-2.69;83.66;99717.52;109176;1274;138707;-56
2022/01/26 08:28:25;;;;;;;103.30;43.00;;;;;;;-2.68;83.52;99717.75;109312;1274;23214;-54
2022/01/26 08:30:53;;;;;;;121.50;49.10;;;;;;;-2.66;83.58;99717.21;109336;1274;23124;-54
2022/01/26 08:33:22;;;;;;;49.00;23.10;;;;;;;-2.65;83.58;99706.98;109108;1274;138622;-54
2022/01/26 08:35:49;;;;;;;55.30;26.10;;;;;;;-2.63;83.25;99714.35;109156;1276;22455;-54
2022/01/26 08:38:19;;;;;;;48.60;23.10;;;;;;;-2.58;83.23;99719.20;109061;1274;139452;-53
2022/01/26 08:40:49;;;;;;;45.20;23.60;;;;;;;-2.54;83.07;99716.92;109317;1274;22443;-55
2022/01/26 08:43:17;;;;;;;33.80;17.20;;;;;;;-2.50;82.83;99721.63;109339;1274;22421;-55
2022/01/26 08:45:45;;;;;;;32.20;18.10;;;;;;;-2.43;82.91;99729.80;109236;1274;138731;-55
2022/01/26 08:48:13;;;;;;;33.70;16.10;;;;;;;-2.39;82.76;99728.44;109311;1274;22511;-55
2022/01/26 08:50:41;;;;;;;35.40;18.30;;;;;;;-2.36;82.49;99731.00;109186;1274;138599;-55
2022/01/26 08:53:09;;;;;;;35.30;18.10;;;;;;;-2.32;82.34;99730.89;109240;1275;23194;-55
2022/01/26 08:55:37;;;;;;;37.00;19.00;;;;;;;-2.28;82.28;99732.20;109178;1274;23291;-55
2022/01/26 08:58:05;;;;;;;44.40;20.40;;;;;;;-2.26;81.96;99731.40;109086;1275;138100;-55
2022/01/26 09:00:35;;;;;;;70.40;30.70;;;;;;;-2.26;81.79;99731.04;109156;1276;23849;-55
2022/01/26 09:03:14;;;;;;;60.50;28.80;;;;;;;-2.27;81.55;99730.77;108964;1275;138736;-55
2022/01/26 09:05:43;;;;;;;37.70;17.30;;;;;;;-2.28;81.42;99726.11;109132;1276;23428;-56
2022/01/26 09:08:11;;;;;;;47.20;23.40;;;;;;;-2.28;81.49;99724.34;109107;1274;140201;-56
2022/01/26 09:10:40;;;;;;;68.90;31.40;;;;;;;-2.27;81.28;99722.66;109345;1274;22408;-56
2022/01/26 09:13:08;;;;;;;55.90;28.20;;;;;;;-2.27;81.54;99724.45;109377;1274;22451;-56
2022/01/26 09:15:37;;;;;;;50.10;22.60;;;;;;;-2.26;81.51;99721.14;109195;1274;139517;-56
2022/01/26 09:18:07;;;;;;;39.30;19.10;;;;;;;-2.20;81.38;99724.66;109354;1274;22493;-56
2022/01/26 09:20:38;;;;;;;49.20;21.80;;;;;;;-2.18;81.43;99726.04;109132;1275;139400;-56
2022/01/26 09:23:06;;;;;;;43.50;22.20;;;;;;;-2.17;81.29;99727.55;109343;1274;22486;-56
2022/01/26 09:25:35;;;;;;;49.30;24.50;;;;;;;-2.19;81.22;99726.54;109368;1274;23128;-56
2022/01/26 09:28:03;;;;;;;39.40;20.30;;;;;;;-2.19;81.44;99726.90;109121;1274;138847;-56
2022/01/26 09:30:31;;;;;;;46.80;21.20;;;;;;;-2.19;81.27;99728.27;109226;1275;22920;-56
2022/01/26 09:32:59;;;;;;;35.70;17.50;;;;;;;-2.19;81.30;99725.67;109153;1275;138774;-56
2022/01/26 09:35:27;;;;;;;49.00;26.70;;;;;;;-2.20;81.31;99722.73;109221;1275;22484;-56
2022/01/26 09:37:55;;;;;;;38.90;19.70;;;;;;;-2.20;81.34;99728.23;109155;1275;139276;-56
2022/01/26 09:40:23;;;;;;;40.40;20.60;;;;;;;-2.19;81.44;99726.70;109420;1274;22405;-54
2022/01/26 09:42:51;;;;;;;43.70;21.80;;;;;;;-2.19;81.37;99733.48;109341;1274;22475;-54
2022/01/26 09:45:19;;;;;;;33.90;18.00;;;;;;;-2.18;81.40;99733.94;109253;1274;139829;-54
2022/01/26 09:47:47;;;;;;;34.10;18.10;;;;;;;-2.18;81.43;99738.34;109374;1274;24391;-54
2022/01/26 09:50:31;;;;;;;29.70;14.90;;;;;;;-2.18;81.45;99736.54;109175;1274;139018;-54
2022/01/26 09:52:59;;;;;;;28.20;15.30;;;;;;;-2.17;81.22;99736.49;109369;1274;22524;-54
2022/01/26 09:55:27;;;;;;;67.50;32.60;;;;;;;-2.19;81.16;99737.23;109411;1274;22485;-54
2022/01/26 09:57:57;;;;;;;51.20;23.50;;;;;;;-2.20;81.11;99735.17;109242;1274;138223;-54
2022/01/26 10:00:26;;;;;;;79.30;34.60;;;;;;;-2.19;81.28;99735.14;109362;1274;23283;-53
2022/01/26 10:02:56;;;;;;;102.10;43.20;;;;;;;-2.21;81.11;99738.80;109266;1274;138724;-54
2022/01/26 10:05:24;;;;;;;57.70;26.50;;;;;;;-2.20;81.28;99737.85;109340;1274;22442;-54
2022/01/26 10:15:26;;;;;;;60.10;27.70;;;;;;;-2.16;81.63;99731.52;109228;1276;23591;-54
2022/01/26 10:18:54;;;;;;;55.30;25.70;;;;;;;-2.09;81.70;99735.59;109251;1276;22421;-54
2022/01/26 10:21:23;;;;;;;33.50;15.70;;;;;;;-2.08;81.54;99737.40;108983;1276;140403;-53
2022/01/26 10:23:54;;;;;;;32.20;16.30;;;;;;;-2.07;81.60;99731.96;109138;1276;22531;-53
2022/01/26 10:26:23;;;;;;;28.20;13.40;;;;;;;-2.05;81.62;99735.66;109097;1274;139276;-54
2022/01/26 10:28:59;;;;;;;25.90;13.60;;;;;;;-2.03;81.38;99730.98;109346;1274;22407;-54
2022/01/26 10:31:39;;;;;;;43.50;19.80;;;;;;;-2.02;81.29;99729.77;109226;1276;22424;-53
2022/01/26 10:34:12;;;;;;;25.50;14.30;;;;;;;-2.05;81.20;99729.54;109081;1275;139682;-54
2022/01/26 10:37:04;;;;;;;28.20;15.10;;;;;;;-2.02;80.96;99733.91;109216;1275;22540;-53
2022/01/26 10:42:06;;;;;;;31.60;15.40;;;;;;;-2.07;80.55;99733.56;109398;1274;23355;-55
2022/01/26 10:44:47;;;;;;;37.10;19.10;;;;;;;-2.06;80.78;99731.99;109173;1274;138904;-56
2022/01/26 10:47:27;;;;;;;25.30;12.90;;;;;;;-2.02;80.67;99735.11;109375;1272;22464;-56
2022/01/26 10:50:09;;;;;;;26.00;13.80;;;;;;;-1.98;80.26;99738.56;109039;1275;139001;-56
2022/01/26 10:52:38;;;;;;;35.10;17.60;;;;;;;-1.94;80.30;99736.25;109357;1273;22553;-56
2022/01/26 10:55:07;;;;;;;25.40;11.80;;;;;;;-1.90;80.22;99734.27;109351;1274;22506;-55
2022/01/26 10:57:36;;;;;;;23.00;12.80;;;;;;;-1.87;79.68;99731.32;109219;1274;138389;-55
2022/01/26 11:00:05;;;;;;;21.90;12.00;;;;;;;-1.86;79.20;99733.77;109353;1274;22377;-55
2022/01/26 11:02:34;;;;;;;23.10;12.40;;;;;;;-1.86;78.24;99734.01;109230;1274;138038;-55
2022/01/26 11:05:03;;;;;;;22.70;11.70;;;;;;;-1.87;78.12;99734.16;109275;1274;22467;-55
2022/01/26 11:07:40;;;;;;;78.90;27.90;;;;;;;-1.87;78.06;99733.01;109254;1274;22460;-56
2022/01/26 11:10:09;;;;;;;30.40;14.80;;;;;;;-1.86;77.62;99731.54;109157;1276;137712;-55
2022/01/26 11:12:39;;;;;;;90.40;35.90;;;;;;;-1.86;77.22;99731.03;109210;1275;22435;-55
2022/01/26 11:15:12;;;;;;;48.10;19.90;;;;;;;-1.84;77.21;99733.84;109124;1274;139003;-56
2022/01/26 11:17:44;;;;;;;36.90;16.20;;;;;;;-1.82;76.99;99734.42;109302;1274;22419;-56
2022/01/26 11:20:16;;;;;;;21.20;11.20;;;;;;;-1.79;77.08;99729.98;109192;1274;140253;-56
2022/01/26 11:22:48;;;;;;;17.80;8.50;;;;;;;-1.76;76.35;99729.58;109291;1274;22529;-55
2022/01/26 11:25:16;;;;;;;16.60;8.30;;;;;;;-1.80;75.43;99726.55;109326;1274;22461;-56
2022/01/26 11:27:44;;;;;;;15.30;8.70;;;;;;;-1.80;75.47;99732.10;109247;1274;137728;-56
2022/01/26 11:30:16;;;;;;;18.20;8.30;;;;;;;-1.83;75.40;99735.60;109361;1274;22482;-56
2022/01/26 11:32:58;;;;;;;16.50;7.20;;;;;;;-1.82;74.33;99742.08;109188;1274;138427;-55
2022/01/26 11:35:28;;;;;;;15.20;8.30;;;;;;;-1.85;73.72;99739.95;109184;1276;22452;-56
2022/01/26 11:38:15;;;;;;;13.20;7.10;;;;;;;-1.87;73.46;99748.95;109184;1275;138243;-55
2022/01/26 11:46:36;;;;;;;10.70;4.20;;;;;;;-1.95;67.79;99740.39;109282;1274;22566;-54
2022/01/26 11:49:10;;;;;;;9.00;4.50;;;;;;;-1.95;68.08;99732.95;109306;1274;22464;-53
2022/01/26 11:51:38;;;;;;;8.60;3.90;;;;;;;-1.96;67.51;99729.24;109194;1274;138267;-54
2022/01/26 11:54:11;;;;;;;10.00;5.00;;;;;;;-1.96;66.54;99726.11;109303;1274;22482;-54
2022/01/26 11:56:40;;;;;;;6.20;3.00;;;;;;;-1.99;65.73;99725.64;109176;1274;138141;-54
2022/01/26 11:59:18;;;;;;;11.50;5.40;;;;;;;-2.00;65.58;99730.49;109314;1274;22448;-54
2022/01/26 12:01:54;;;;;;;13.10;6.60;;;;;;;-2.03;65.90;99738.05;109249;1274;22547;-54
2022/01/26 12:04:24;;;;;;;18.70;8.60;;;;;;;-2.06;65.87;99734.83;109191;1274;138445;-54
2022/01/26 12:07:00;;;;;;;16.20;8.50;;;;;;;-2.08;65.60;99728.48;109297;1274;22400;-54
2022/01/26 12:09:29;;;;;;;14.20;8.10;;;;;;;-2.08;66.19;99734.20;109242;1274;138044;-53
2022/01/26 12:11:57;;;;;;;8.50;4.40;;;;;;;-2.07;65.83;99731.98;109383;1274;22431;-54
2022/01/26 12:14:25;;;;;;;8.50;4.80;;;;;;;-2.07;65.25;99737.84;109246;1274;138738;-54
2022/01/26 12:16:57;;;;;;;11.00;4.80;;;;;;;-2.07;65.61;99742.98;109297;1274;22487;-54
2022/01/26 12:36:17;;;;;;;13.30;6.50;;;;;;;-2.08;67.31;99749.84;108497;1281;182217;-53
2022/01/26 12:38:49;;;;;;;10.90;6.00;;;;;;;-2.07;67.73;99754.19;109269;1274;138443;-53
2022/01/26 12:43:54;;;;;;;16.70;5.30;;;;;;;-2.08;67.80;99757.65;109338;1274;22426;-53
2022/01/26 12:46:27;;;;;;;11.00;5.90;;;;;;;-2.06;67.98;99757.79;109300;1274;138693;-53
2022/01/26 12:48:59;;;;;;;12.80;6.00;;;;;;;-2.03;68.03;99761.29;109417;1274;22507;-53
2022/01/26 12:51:28;;;;;;;14.70;6.90;;;;;;;-2.02;68.04;99763.29;109170;1274;137212;-52
2022/01/26 12:53:57;;;;;;;12.90;5.80;;;;;;;-2.01;68.18;99767.90;109364;1274;22541;-53
2022/01/26 12:56:27;;;;;;;11.00;5.80;;;;;;;-2.02;67.74;99763.14;109252;1273;137516;-53
2022/01/26 12:59:02;;;;;;;11.70;6.60;;;;;;;-2.01;68.03;99763.86;109415;1273;22454;-52
2022/01/26 13:01:30;;;;;;;13.00;6.40;;;;;;;-2.01;68.02;99764.66;109388;1274;22480;-53
2022/01/26 13:04:03;;;;;;;14.20;6.00;;;;;;;-2.02;67.84;99765.55;109331;1273;137014;-53
2022/01/26 13:06:35;;;;;;;11.40;5.70;;;;;;;-2.03;67.38;99771.41;109442;1273;22406;-54
2022/01/26 13:09:27;;;;;;;11.20;5.40;;;;;;;-2.08;67.64;99764.06;109271;1273;137315;-52
2022/01/26 13:11:59;;;;;;;10.60;5.80;;;;;;;-2.09;67.60;99765.47;109393;1274;22547;-52
2022/01/26 13:14:54;;;;;;;13.00;6.40;;;;;;;-2.10;67.28;99767.17;109283;1274;140816;-53
2022/01/26 13:20:17;;;;;;;51.20;21.60;;;;;;;-2.11;67.19;99769.11;109409;1274;22525;-53
2022/01/26 13:25:59;;;;;;;17.10;8.20;;;;;;;-2.12;67.22;99774.54;109356;1272;23426;-53
2022/01/26 13:28:34;;;;;;;14.70;6.90;;;;;;;-2.14;67.29;99772.90;109261;1274;137219;-53
2022/01/26 13:39:44;;;;;;;20.00;10.40;;;;;;;-2.19;67.77;99779.05;109268;1274;138864;-52
2022/01/26 13:45:27;;;;;;;17.10;9.70;;;;;;;-2.19;67.64;99779.38;109257;1274;136993;-53
2022/01/26 13:50:34;;;;;;;18.90;8.80;;;;;;;-2.22;67.73;99783.08;109220;1274;137314;-53
2022/01/26 13:53:10;;;;;;;37.40;15.70;;;;;;;-2.23;67.86;99783.02;109299;1274;22434;-53
2022/01/26 13:56:01;;;;;;;16.60;7.70;;;;;;;-2.24;68.19;99782.74;109363;1273;22563;-53
2022/01/26 14:01:18;;;;;;;58.40;25.10;;;;;;;-2.29;68.32;99781.51;109377;1273;22454;-52
2022/01/26 14:03:54;;;;;;;40.00;17.60;;;;;;;-2.28;68.53;99784.08;109323;1273;137326;-53
2022/01/26 14:06:22;;;;;;;49.50;20.90;;;;;;;-2.29;68.50;99783.47;109349;1273;22503;-53